地図

経路データ

SID SEASON NUMBER BASIN SUBBASIN NAME ISO_TIME NATURE LAT LON WMO_WIND WMO_PRES WMO_AGENCY TRACK_TYPE DIST2LAND LANDFALL IFLAG USA_AGENCY USA_ATCF_ID USA_LAT USA_LON USA_RECORD USA_STATUS USA_WIND USA_PRES USA_SSHS USA_R34_NE USA_R34_SE USA_R34_SW USA_R34_NW USA_R50_NE USA_R50_SE USA_R50_SW USA_R50_NW USA_R64_NE USA_R64_SE USA_R64_SW USA_R64_NW USA_POCI USA_ROCI USA_RMW USA_EYE TOKYO_LAT TOKYO_LON TOKYO_GRADE TOKYO_WIND TOKYO_PRES TOKYO_R50_DIR TOKYO_R50_LONG TOKYO_R50_SHORT TOKYO_R30_DIR TOKYO_R30_LONG TOKYO_R30_SHORT TOKYO_LAND CMA_LAT CMA_LON CMA_CAT CMA_WIND CMA_PRES HKO_LAT HKO_LON HKO_CAT HKO_WIND HKO_PRES NEWDELHI_LAT NEWDELHI_LON NEWDELHI_GRADE NEWDELHI_WIND NEWDELHI_PRES NEWDELHI_CI NEWDELHI_DP NEWDELHI_POCI REUNION_LAT REUNION_LON REUNION_TYPE REUNION_WIND REUNION_PRES REUNION_TNUM REUNION_CI REUNION_RMW REUNION_R34_NE REUNION_R34_SE REUNION_R34_SW REUNION_R34_NW REUNION_R50_NE REUNION_R50_SE REUNION_R50_SW REUNION_R50_NW REUNION_R64_NE REUNION_R64_SE REUNION_R64_SW REUNION_R64_NW BOM_LAT BOM_LON BOM_TYPE BOM_WIND BOM_PRES BOM_TNUM BOM_CI BOM_RMW BOM_R34_NE BOM_R34_SE BOM_R34_SW BOM_R34_NW BOM_R50_NE BOM_R50_SE BOM_R50_SW BOM_R50_NW BOM_R64_NE BOM_R64_SE BOM_R64_SW BOM_R64_NW BOM_ROCI BOM_POCI BOM_EYE BOM_POS_METHOD BOM_PRES_METHOD NADI_LAT NADI_LON NADI_CAT NADI_WIND NADI_PRES WELLINGTON_LAT WELLINGTON_LON WELLINGTON_WIND WELLINGTON_PRES DS824_LAT DS824_LON DS824_STAGE DS824_WIND DS824_PRES TD9636_LAT TD9636_LON TD9636_STAGE TD9636_WIND TD9636_PRES TD9635_LAT TD9635_LON TD9635_WIND TD9635_PRES TD9635_ROCI NEUMANN_LAT NEUMANN_LON NEUMANN_CLASS NEUMANN_WIND NEUMANN_PRES MLC_LAT MLC_LON MLC_CLASS MLC_WIND MLC_PRES USA_GUST BOM_GUST BOM_GUST_PER REUNION_GUST REUNION_GUST_PER USA_SEAHGT USA_SEARAD_NE USA_SEARAD_SE USA_SEARAD_SW USA_SEARAD_NW STORM_SPEED STORM_DIR
1925236N17128 1925 41 WP MM NOT_NAMED 1925-08-24 10:00:00 NR 17.2000 127.600 main 503 503 __________O___ -1 17.2000 127.600 4 5 327
1925236N17128 1925 41 WP MM NOT_NAMED 1925-08-24 12:00:00 NR 17.3485 127.495 main 503 504 __________P___ -1 17.3485 127.495 4 5 326
1925236N17128 1925 41 WP MM NOT_NAMED 1925-08-24 15:00:00 NR 17.5656 127.339 main 514 505 __________P___ -1 17.5656 127.339 4 5 325
1925236N17128 1925 41 WP MM NOT_NAMED 1925-08-24 18:00:00 NR 17.7680 127.188 main 506 487 __________P___ -1 17.7680 127.188 4 5 324
1925236N17128 1925 41 WP MM NOT_NAMED 1925-08-24 21:00:00 NR 17.9470 127.045 main 487 490 __________P___ -1 17.9470 127.045 4 4 323
1925236N17128 1925 41 WP MM NOT_NAMED 1925-08-24 22:00:00 NR 18.0000 127.000 main 490 482 __________O___ -1 18.0000 127.000 4 4 320
1925236N17128 1925 41 WP MM NOT_NAMED 1925-08-25 00:00:00 NR 18.0952 126.914 main 482 475 __________P___ -1 18.0952 126.914 4 4 318
1925236N17128 1925 41 WP MM NOT_NAMED 1925-08-25 03:00:00 NR 18.2190 126.797 main 475 464 __________P___ -1 18.2190 126.797 4 3 319
1925236N17128 1925 41 WP MM NOT_NAMED 1925-08-25 06:00:00 NR 18.3338 126.699 main 464 453 __________P___ -1 18.3338 126.699 4 3 324
1925236N17128 1925 41 WP MM NOT_NAMED 1925-08-25 09:00:00 NR 18.4553 126.621 main 453 453 __________P___ -1 18.4553 126.621 4 3 329
1925236N17128 1925 41 WP MM NOT_NAMED 1925-08-25 10:00:00 NR 18.5000 126.600 main 453 453 __________O___ -1 18.5000 126.600 4 3 337
1925236N17128 1925 41 WP MM NOT_NAMED 1925-08-25 12:00:00 NR 18.5869 126.566 main 454 443 __________P___ -1 18.5869 126.566 4 3 345
1925236N17128 1925 41 WP MM NOT_NAMED 1925-08-25 15:00:00 NR 18.7294 126.534 main 444 444 __________P___ -1 18.7294 126.534 4 3 352
1925236N17128 1925 41 WP MM NOT_NAMED 1925-08-25 18:00:00 NR 18.9005 126.517 main 446 446 __________P___ -1 18.9005 126.517 4 4 355
1925236N17128 1925 41 WP MM NOT_NAMED 1925-08-25 21:00:00 NR 19.1157 126.505 main 449 449 __________P___ -1 19.1157 126.505 4 5 0
1925236N17128 1925 41 WP MM NOT_NAMED 1925-08-25 22:00:00 NR 19.2000 126.500 main 451 451 __________O___ -1 19.2000 126.500 4 6 0
1925236N17128 1925 41 WP MM NOT_NAMED 1925-08-26 00:00:00 NR 19.3934 126.491 main 455 455 __________P___ -1 19.3934 126.491 4 6 358
1925236N17128 1925 41 WP MM NOT_NAMED 1925-08-26 03:00:00 NR 19.7276 126.478 main 464 464 __________P___ -1 19.7276 126.478 4 7 356
1925236N17128 1925 41 WP MM NOT_NAMED 1925-08-26 06:00:00 NR 20.0953 126.457 main 480 475 __________P___ -1 20.0953 126.457 4 8 355
1925236N17128 1925 41 WP MM NOT_NAMED 1925-08-26 09:00:00 NR 20.4747 126.418 main 489 489 __________P___ -1 20.4747 126.418 4 8 353
1925236N17128 1925 41 WP MM NOT_NAMED 1925-08-26 10:00:00 NR 20.6000 126.400 main 495 495 __________O___ -1 20.6000 126.400 4 7 353
1925236N17128 1925 41 WP MM NOT_NAMED 1925-08-26 12:00:00 NR 20.8306 126.369 main 506 506 __________P___ -1 20.8306 126.369 4 7 352
1925236N17128 1925 41 WP MM NOT_NAMED 1925-08-26 15:00:00 NR 21.1765 126.303 main 522 522 __________P___ -1 21.1765 126.303 4 7 348
1925236N17128 1925 41 WP MM NOT_NAMED 1925-08-26 18:00:00 NR 21.5252 126.204 main 525 500 __________P___ -1 21.5252 126.204 4 7 342
1925236N17128 1925 41 WP MM NOT_NAMED 1925-08-26 21:00:00 NR 21.8799 126.060 main 500 487 __________P___ -1 21.8799 126.060 4 8 338
1925236N17128 1925 41 WP MM NOT_NAMED 1925-08-26 22:00:00 NR 22.0000 126.000 main 487 470 __________O___ -1 22.0000 126.000 4 8 335
1925236N17128 1925 41 WP MM NOT_NAMED 1925-08-27 00:00:00 NR 22.2548 125.867 main 470 432 __________P___ -1 22.2548 125.867 4 9 332
1925236N17128 1925 41 WP MM NOT_NAMED 1925-08-27 03:00:00 NR 22.6434 125.624 main 432 384 __________P___ -1 22.6434 125.624 4 9 328
1925236N17128 1925 41 WP MM NOT_NAMED 1925-08-27 06:00:00 NR 23.0260 125.336 main 384 337 __________P___ -1 23.0260 125.336 4 9 323
1925236N17128 1925 41 WP MM NOT_NAMED 1925-08-27 09:00:00 NR 23.3871 125.014 main 337 324 __________P___ -1 23.3871 125.014 4 9 320
1925236N17128 1925 41 WP MM NOT_NAMED 1925-08-27 10:00:00 NR 23.5000 124.900 main 324 297 __________O___ -1 23.5000 124.900 4 9 318
1925236N17128 1925 41 WP MM NOT_NAMED 1925-08-27 12:00:00 NR 23.7083 124.698 main 297 259 __________P___ -1 23.7083 124.698 4 8 316
1925236N17128 1925 41 WP MM NOT_NAMED 1925-08-27 15:00:00 NR 23.9956 124.372 main 259 213 __________P___ -1 23.9956 124.372 4 8 311
1925236N17128 1925 41 WP MM NOT_NAMED 1925-08-27 18:00:00 NR 24.2616 123.999 main 213 170 __________P___ -1 24.2616 123.999 4 9 305
1925236N17128 1925 41 WP MM NOT_NAMED 1925-08-27 21:00:00 NR 24.5161 123.563 main 170 148 __________P___ -1 24.5161 123.563 4 10 302
1925236N17128 1925 41 WP MM NOT_NAMED 1925-08-27 22:00:00 NR 24.6000 123.400 main 148 103 __________O___ -1 24.6000 123.400 4 11 300
1925236N17128 1925 41 WP MM NOT_NAMED 1925-08-28 00:00:00 NR 24.7830 123.046 main 103 50 __________P___ -1 24.7830 123.046 4 12 298
1925236N17128 1925 41 WP MM NOT_NAMED 1925-08-28 03:00:00 NR 25.0513 122.452 main 51 22 __________P___ -1 25.0513 122.452 4 12 295
1925236N17128 1925 41 WP MM NOT_NAMED 1925-08-28 06:00:00 NR 25.3037 121.804 main 22 15 __________P___ -1 25.3037 121.804 4 13 292
1925236N17128 1925 41 WP MM NOT_NAMED 1925-08-28 09:00:00 NR 25.5312 121.127 main 45 45 __________P___ -1 25.5312 121.127 4 13 290
1925236N17128 1925 41 WP MM NOT_NAMED 1925-08-28 10:00:00 NR 25.6000 120.900 main 63 63 __________O___ -1 25.6000 120.900 4 13 288
1925236N17128 1925 41 WP MM NOT_NAMED 1925-08-28 12:00:00 NR 25.7260 120.447 main 73 9 __________P___ -1 25.7260 120.447 4 13 286
1925236N17128 1925 41 WP MM NOT_NAMED 1925-08-28 15:00:00 NR 25.8900 119.770 main 9 0 __________P___ -1 25.8900 119.770 4 13 284
1925236N17128 1925 41 WP MM NOT_NAMED 1925-08-28 18:00:00 NR 26.0317 119.097 main 0 0 __________P___ -1 26.0317 119.097 4 12 283
1925236N17128 1925 41 WP MM NOT_NAMED 1925-08-28 21:00:00 NR 26.1592 118.424 main 0 0 __________P___ -1 26.1592 118.424 4 12 282
1925236N17128 1925 41 WP MM NOT_NAMED 1925-08-28 22:00:00 NR 26.2000 118.200 main 0 __________O___ -1 26.2000 118.200 7 12 281

デジタル台風データ・検索

IBTrACS Databaseについて

本データベースは、米国NOAAが公開する1842年以降の世界の熱帯低気圧のベストトラックデータアーカイブInternational Best Track Archive for Climate Stewardship (IBTrACS)を、ウェブで閲覧しやすい形式に変換したものです。

最終更新日:2021-12-03